sensor_id;sensor_type;location;lat;lon;timestamp;temperature;humidity
14252;DHT22;7210;51.502;10.722;2022-07-09T00:00:09;12.80;1.00
14252;DHT22;7210;51.502;10.722;2022-07-09T00:02:37;12.80;1.00
14252;DHT22;7210;51.502;10.722;2022-07-09T00:05:05;12.80;1.00
14252;DHT22;7210;51.502;10.722;2022-07-09T00:07:32;12.70;1.00
14252;DHT22;7210;51.502;10.722;2022-07-09T00:10:01;12.80;1.00
14252;DHT22;7210;51.502;10.722;2022-07-09T00:12:28;12.70;1.00
14252;DHT22;7210;51.502;10.722;2022-07-09T00:14:55;12.60;1.00
14252;DHT22;7210;51.502;10.722;2022-07-09T00:17:23;12.60;1.00
14252;DHT22;7210;51.502;10.722;2022-07-09T00:19:51;12.50;1.00
14252;DHT22;7210;51.502;10.722;2022-07-09T00:22:18;12.60;1.00
14252;DHT22;7210;51.502;10.722;2022-07-09T00:24:46;12.60;1.00
14252;DHT22;7210;51.502;10.722;2022-07-09T00:27:14;12.60;1.00
14252;DHT22;7210;51.502;10.722;2022-07-09T00:29:41;12.60;1.00
14252;DHT22;7210;51.502;10.722;2022-07-09T00:32:09;12.60;1.00
14252;DHT22;7210;51.502;10.722;2022-07-09T00:34:36;12.70;1.00
14252;DHT22;7210;51.502;10.722;2022-07-09T00:37:04;12.70;1.00
14252;DHT22;7210;51.502;10.722;2022-07-09T00:39:31;12.70;1.00
14252;DHT22;7210;51.502;10.722;2022-07-09T00:42:03;12.60;1.00
14252;DHT22;7210;51.502;10.722;2022-07-09T00:44:33;12.60;1.00
14252;DHT22;7210;51.502;10.722;2022-07-09T00:47:05;12.60;1.00
14252;DHT22;7210;51.502;10.722;2022-07-09T00:49:36;12.50;1.00
14252;DHT22;7210;51.502;10.722;2022-07-09T00:52:06;12.40;1.00
14252;DHT22;7210;51.502;10.722;2022-07-09T00:54:36;12.30;1.00
14252;DHT22;7210;51.502;10.722;2022-07-09T00:57:07;12.30;1.00
14252;DHT22;7210;51.502;10.722;2022-07-09T00:59:38;12.20;1.00
14252;DHT22;7210;51.502;10.722;2022-07-09T01:02:07;12.10;99.90
14252;DHT22;7210;51.502;10.722;2022-07-09T01:04:36;12.20;99.90
14252;DHT22;7210;51.502;10.722;2022-07-09T01:07:05;12.20;99.90
14252;DHT22;7210;51.502;10.722;2022-07-09T01:09:32;12.20;99.90
14252;DHT22;7210;51.502;10.722;2022-07-09T01:12:00;12.20;99.90
14252;DHT22;7210;51.502;10.722;2022-07-09T01:14:28;12.20;99.90
14252;DHT22;7210;51.502;10.722;2022-07-09T01:17:00;12.30;99.90
14252;DHT22;7210;51.502;10.722;2022-07-09T01:19:34;12.20;99.90
14252;DHT22;7210;51.502;10.722;2022-07-09T01:22:03;12.20;99.90
14252;DHT22;7210;51.502;10.722;2022-07-09T01:24:31;12.20;99.90
14252;DHT22;7210;51.502;10.722;2022-07-09T01:26:58;12.20;99.90
14252;DHT22;7210;51.502;10.722;2022-07-09T01:29:26;12.20;99.90
14252;DHT22;7210;51.502;10.722;2022-07-09T01:31:54;12.20;99.90
14252;DHT22;7210;51.502;10.722;2022-07-09T01:34:21;12.10;99.90
14252;DHT22;7210;51.502;10.722;2022-07-09T01:36:48;12.10;99.90
14252;DHT22;7210;51.502;10.722;2022-07-09T01:39:17;12.00;99.90
14252;DHT22;7210;51.502;10.722;2022-07-09T01:41:44;12.00;99.90
14252;DHT22;7210;51.502;10.722;2022-07-09T01:44:11;12.00;99.90
14252;DHT22;7210;51.502;10.722;2022-07-09T01:46:38;12.00;99.90
14252;DHT22;7210;51.502;10.722;2022-07-09T01:49:05;12.00;99.90
14252;DHT22;7210;51.502;10.722;2022-07-09T01:51:33;12.00;99.90
14252;DHT22;7210;51.502;10.722;2022-07-09T01:54:01;12.00;99.90
14252;DHT22;7210;51.502;10.722;2022-07-09T01:56:31;12.00;99.90
14252;DHT22;7210;51.502;10.722;2022-07-09T01:58:59;12.00;99.90
14252;DHT22;7210;51.502;10.722;2022-07-09T02:01:26;12.00;99.90
14252;DHT22;7210;51.502;10.722;2022-07-09T02:03:53;11.90;99.90
14252;DHT22;7210;51.502;10.722;2022-07-09T02:06:21;12.00;99.90
14252;DHT22;7210;51.502;10.722;2022-07-09T02:08:48;11.90;99.90
14252;DHT22;7210;51.502;10.722;2022-07-09T02:14:07;11.90;99.90
14252;DHT22;7210;51.502;10.722;2022-07-09T02:16:34;11.90;99.90
14252;DHT22;7210;51.502;10.722;2022-07-09T02:19:01;12.00;99.90
14252;DHT22;7210;51.502;10.722;2022-07-09T02:21:29;11.90;99.90
14252;DHT22;7210;51.502;10.722;2022-07-09T02:23:56;11.90;99.90
14252;DHT22;7210;51.502;10.722;2022-07-09T02:26:24;11.90;99.90
14252;DHT22;7210;51.502;10.722;2022-07-09T02:28:53;11.90;99.90
14252;DHT22;7210;51.502;10.722;2022-07-09T02:31:22;11.90;99.90
14252;DHT22;7210;51.502;10.722;2022-07-09T02:33:49;11.90;99.90
14252;DHT22;7210;51.502;10.722;2022-07-09T02:36:17;11.90;99.90
14252;DHT22;7210;51.502;10.722;2022-07-09T02:38:44;12.00;99.90
14252;DHT22;7210;51.502;10.722;2022-07-09T02:41:11;12.00;99.90
14252;DHT22;7210;51.502;10.722;2022-07-09T02:43:39;12.00;99.90
14252;DHT22;7210;51.502;10.722;2022-07-09T02:46:08;11.90;99.90
14252;DHT22;7210;51.502;10.722;2022-07-09T02:48:37;11.80;99.90
14252;DHT22;7210;51.502;10.722;2022-07-09T02:51:05;11.80;99.90
14252;DHT22;7210;51.502;10.722;2022-07-09T02:53:32;11.70;99.90
14252;DHT22;7210;51.502;10.722;2022-07-09T02:55:59;11.70;99.90
14252;DHT22;7210;51.502;10.722;2022-07-09T02:58:27;11.70;99.90
14252;DHT22;7210;51.502;10.722;2022-07-09T03:00:54;11.70;99.90
14252;DHT22;7210;51.502;10.722;2022-07-09T03:03:21;11.70;99.90
14252;DHT22;7210;51.502;10.722;2022-07-09T03:05:51;11.80;99.90
14252;DHT22;7210;51.502;10.722;2022-07-09T03:08:18;11.80;99.90
14252;DHT22;7210;51.502;10.722;2022-07-09T03:10:47;11.90;99.90
14252;DHT22;7210;51.502;10.722;2022-07-09T03:13:15;11.90;99.90
14252;DHT22;7210;51.502;10.722;2022-07-09T03:15:42;12.00;99.90
14252;DHT22;7210;51.502;10.722;2022-07-09T03:18:09;12.00;99.90
14252;DHT22;7210;51.502;10.722;2022-07-09T03:20:37;12.00;99.90
14252;DHT22;7210;51.502;10.722;2022-07-09T03:23:06;11.90;99.90
14252;DHT22;7210;51.502;10.722;2022-07-09T03:25:33;11.90;99.90
14252;DHT22;7210;51.502;10.722;2022-07-09T03:28:00;11.90;99.90
14252;DHT22;7210;51.502;10.722;2022-07-09T03:30:27;11.80;99.90
14252;DHT22;7210;51.502;10.722;2022-07-09T03:32:55;11.80;99.90
14252;DHT22;7210;51.502;10.722;2022-07-09T03:35:22;11.80;99.90
14252;DHT22;7210;51.502;10.722;2022-07-09T03:37:49;11.80;99.90
14252;DHT22;7210;51.502;10.722;2022-07-09T03:40:18;11.70;99.90
14252;DHT22;7210;51.502;10.722;2022-07-09T03:42:53;11.70;99.90
14252;DHT22;7210;51.502;10.722;2022-07-09T03:45:34;11.80;99.90
14252;DHT22;7210;51.502;10.722;2022-07-09T03:48:01;11.90;99.90
14252;DHT22;7210;51.502;10.722;2022-07-09T03:50:28;12.10;99.90
14252;DHT22;7210;51.502;10.722;2022-07-09T03:52:56;12.20;1.00
14252;DHT22;7210;51.502;10.722;2022-07-09T03:55:25;12.20;1.00
14252;DHT22;7210;51.502;10.722;2022-07-09T03:57:53;12.30;1.00
14252;DHT22;7210;51.502;10.722;2022-07-09T04:00:20;12.40;1.00
14252;DHT22;7210;51.502;10.722;2022-07-09T04:02:47;12.50;1.00
14252;DHT22;7210;51.502;10.722;2022-07-09T04:05:14;12.60;1.00
14252;DHT22;7210;51.502;10.722;2022-07-09T04:07:42;12.70;1.00
14252;DHT22;7210;51.502;10.722;2022-07-09T04:10:09;12.80;1.00
14252;DHT22;7210;51.502;10.722;2022-07-09T04:12:38;12.90;1.00
14252;DHT22;7210;51.502;10.722;2022-07-09T04:15:06;13.10;1.00
14252;DHT22;7210;51.502;10.722;2022-07-09T04:17:34;13.20;1.00
14252;DHT22;7210;51.502;10.722;2022-07-09T04:20:01;13.40;1.00
14252;DHT22;7210;51.502;10.722;2022-07-09T04:22:29;13.50;1.00
14252;DHT22;7210;51.502;10.722;2022-07-09T04:24:57;13.60;1.00
14252;DHT22;7210;51.502;10.722;2022-07-09T04:27:25;13.80;1.00
14252;DHT22;7210;51.502;10.722;2022-07-09T04:29:53;14.00;1.00
14252;DHT22;7210;51.502;10.722;2022-07-09T04:32:20;14.10;1.00
14252;DHT22;7210;51.502;10.722;2022-07-09T04:34:48;14.20;1.00
14252;DHT22;7210;51.502;10.722;2022-07-09T04:37:15;14.40;1.00
14252;DHT22;7210;51.502;10.722;2022-07-09T04:39:42;14.50;1.00
14252;DHT22;7210;51.502;10.722;2022-07-09T04:42:09;14.60;1.00
14252;DHT22;7210;51.502;10.722;2022-07-09T04:44:38;14.80;1.00
14252;DHT22;7210;51.502;10.722;2022-07-09T04:47:09;14.90;1.00
14252;DHT22;7210;51.502;10.722;2022-07-09T04:49:36;14.90;1.00
14252;DHT22;7210;51.502;10.722;2022-07-09T04:52:04;15.00;1.00
14252;DHT22;7210;51.502;10.722;2022-07-09T04:54:32;15.10;1.00
14252;DHT22;7210;51.502;10.722;2022-07-09T04:56:59;15.20;1.00
14252;DHT22;7210;51.502;10.722;2022-07-09T04:59:27;15.40;1.00
14252;DHT22;7210;51.502;10.722;2022-07-09T05:01:54;15.50;1.00
14252;DHT22;7210;51.502;10.722;2022-07-09T05:04:22;15.70;1.00
14252;DHT22;7210;51.502;10.722;2022-07-09T05:06:50;15.80;1.00
14252;DHT22;7210;51.502;10.722;2022-07-09T05:09:17;15.90;1.00
14252;DHT22;7210;51.502;10.722;2022-07-09T05:11:44;16.00;1.00
14252;DHT22;7210;51.502;10.722;2022-07-09T05:14:12;16.10;1.00
14252;DHT22;7210;51.502;10.722;2022-07-09T05:16:39;16.20;1.00
14252;DHT22;7210;51.502;10.722;2022-07-09T05:19:10;16.30;1.00
14252;DHT22;7210;51.502;10.722;2022-07-09T05:21:39;16.30;1.00
14252;DHT22;7210;51.502;10.722;2022-07-09T05:24:07;16.40;1.00
14252;DHT22;7210;51.502;10.722;2022-07-09T05:26:34;16.50;1.00
14252;DHT22;7210;51.502;10.722;2022-07-09T05:29:02;16.50;1.00
14252;DHT22;7210;51.502;10.722;2022-07-09T05:31:29;16.60;1.00
14252;DHT22;7210;51.502;10.722;2022-07-09T05:33:57;16.70;1.00
14252;DHT22;7210;51.502;10.722;2022-07-09T05:36:26;16.80;1.00
14252;DHT22;7210;51.502;10.722;2022-07-09T05:38:57;16.90;1.00
14252;DHT22;7210;51.502;10.722;2022-07-09T05:41:26;16.90;1.00
14252;DHT22;7210;51.502;10.722;2022-07-09T05:43:53;17.00;1.00
14252;DHT22;7210;51.502;10.722;2022-07-09T05:46:21;17.00;1.00
14252;DHT22;7210;51.502;10.722;2022-07-09T05:48:48;17.10;1.00
14252;DHT22;7210;51.502;10.722;2022-07-09T05:51:16;17.20;1.00
14252;DHT22;7210;51.502;10.722;2022-07-09T05:53:44;17.10;1.00
14252;DHT22;7210;51.502;10.722;2022-07-09T05:56:12;17.20;1.00
14252;DHT22;7210;51.502;10.722;2022-07-09T05:58:40;17.30;1.00
14252;DHT22;7210;51.502;10.722;2022-07-09T06:01:07;17.30;1.00
14252;DHT22;7210;51.502;10.722;2022-07-09T06:03:34;17.30;1.00
14252;DHT22;7210;51.502;10.722;2022-07-09T06:06:01;17.20;1.00
14252;DHT22;7210;51.502;10.722;2022-07-09T06:08:29;17.10;1.00
14252;DHT22;7210;51.502;10.722;2022-07-09T06:10:57;17.10;1.00
14252;DHT22;7210;51.502;10.722;2022-07-09T06:13:26;17.00;1.00
14252;DHT22;7210;51.502;10.722;2022-07-09T06:15:53;17.00;1.00
14252;DHT22;7210;51.502;10.722;2022-07-09T06:18:21;16.90;1.00
14252;DHT22;7210;51.502;10.722;2022-07-09T06:20:48;16.90;1.00
14252;DHT22;7210;51.502;10.722;2022-07-09T06:23:15;16.90;1.00
14252;DHT22;7210;51.502;10.722;2022-07-09T06:25:43;17.00;1.00
14252;DHT22;7210;51.502;10.722;2022-07-09T06:28:10;17.10;1.00
14252;DHT22;7210;51.502;10.722;2022-07-09T06:30:39;17.20;1.00
14252;DHT22;7210;51.502;10.722;2022-07-09T06:33:06;17.30;1.00
14252;DHT22;7210;51.502;10.722;2022-07-09T06:35:33;17.40;1.00
14252;DHT22;7210;51.502;10.722;2022-07-09T06:38:00;17.50;1.00
14252;DHT22;7210;51.502;10.722;2022-07-09T06:40:27;17.60;1.00
14252;DHT22;7210;51.502;10.722;2022-07-09T06:42:55;17.60;1.00
14252;DHT22;7210;51.502;10.722;2022-07-09T06:45:31;17.50;1.00
14252;DHT22;7210;51.502;10.722;2022-07-09T06:48:00;17.50;1.00
14252;DHT22;7210;51.502;10.722;2022-07-09T06:50:27;17.40;1.00
14252;DHT22;7210;51.502;10.722;2022-07-09T06:52:54;17.40;1.00
14252;DHT22;7210;51.502;10.722;2022-07-09T06:55:21;17.30;1.00
14252;DHT22;7210;51.502;10.722;2022-07-09T06:57:49;17.30;1.00
14252;DHT22;7210;51.502;10.722;2022-07-09T07:00:16;17.20;1.00
14252;DHT22;7210;51.502;10.722;2022-07-09T07:02:43;17.20;1.00
14252;DHT22;7210;51.502;10.722;2022-07-09T07:05:12;17.20;1.00
14252;DHT22;7210;51.502;10.722;2022-07-09T07:07:39;17.20;1.00
14252;DHT22;7210;51.502;10.722;2022-07-09T07:10:06;17.20;1.00
14252;DHT22;7210;51.502;10.722;2022-07-09T07:12:35;17.10;1.00
14252;DHT22;7210;51.502;10.722;2022-07-09T07:15:02;17.10;1.00
14252;DHT22;7210;51.502;10.722;2022-07-09T07:17:30;17.10;1.00
14252;DHT22;7210;51.502;10.722;2022-07-09T07:19:58;17.10;1.00
14252;DHT22;7210;51.502;10.722;2022-07-09T07:22:27;17.20;1.00
14252;DHT22;7210;51.502;10.722;2022-07-09T07:24:54;17.30;1.00
14252;DHT22;7210;51.502;10.722;2022-07-09T07:27:21;17.30;1.00
14252;DHT22;7210;51.502;10.722;2022-07-09T07:29:50;17.50;1.00
14252;DHT22;7210;51.502;10.722;2022-07-09T07:32:17;17.70;1.00
14252;DHT22;7210;51.502;10.722;2022-07-09T07:34:45;17.90;1.00
14252;DHT22;7210;51.502;10.722;2022-07-09T07:37:12;18.10;1.00
14252;DHT22;7210;51.502;10.722;2022-07-09T07:39:40;18.10;1.00
14252;DHT22;7210;51.502;10.722;2022-07-09T07:42:08;18.30;1.00
14252;DHT22;7210;51.502;10.722;2022-07-09T07:44:35;18.40;1.00
14252;DHT22;7210;51.502;10.722;2022-07-09T07:47:02;18.50;1.00
14252;DHT22;7210;51.502;10.722;2022-07-09T07:49:30;18.50;1.00
14252;DHT22;7210;51.502;10.722;2022-07-09T07:51:57;18.60;1.00
14252;DHT22;7210;51.502;10.722;2022-07-09T07:54:24;18.80;1.00
14252;DHT22;7210;51.502;10.722;2022-07-09T07:56:53;18.70;1.00
14252;DHT22;7210;51.502;10.722;2022-07-09T07:59:20;18.80;1.00
14252;DHT22;7210;51.502;10.722;2022-07-09T08:01:50;18.90;1.00
14252;DHT22;7210;51.502;10.722;2022-07-09T08:04:17;18.90;1.00
14252;DHT22;7210;51.502;10.722;2022-07-09T08:06:45;19.00;1.00
14252;DHT22;7210;51.502;10.722;2022-07-09T08:09:12;19.00;1.00
14252;DHT22;7210;51.502;10.722;2022-07-09T08:11:40;19.10;1.00
14252;DHT22;7210;51.502;10.722;2022-07-09T08:14:08;19.20;1.00
14252;DHT22;7210;51.502;10.722;2022-07-09T08:16:36;19.30;1.00
14252;DHT22;7210;51.502;10.722;2022-07-09T08:19:03;19.50;1.00
14252;DHT22;7210;51.502;10.722;2022-07-09T08:21:30;19.80;1.00
14252;DHT22;7210;51.502;10.722;2022-07-09T08:23:57;19.90;1.00
14252;DHT22;7210;51.502;10.722;2022-07-09T08:26:27;20.10;1.00
14252;DHT22;7210;51.502;10.722;2022-07-09T08:28:54;20.10;1.00
14252;DHT22;7210;51.502;10.722;2022-07-09T08:31:24;20.20;1.00
14252;DHT22;7210;51.502;10.722;2022-07-09T08:33:52;20.30;1.00
14252;DHT22;7210;51.502;10.722;2022-07-09T08:36:19;20.40;1.00
14252;DHT22;7210;51.502;10.722;2022-07-09T08:38:46;20.40;1.00
14252;DHT22;7210;51.502;10.722;2022-07-09T08:41:15;20.40;1.00
14252;DHT22;7210;51.502;10.722;2022-07-09T08:43:50;20.40;1.00
14252;DHT22;7210;51.502;10.722;2022-07-09T08:46:19;20.20;1.00
14252;DHT22;7210;51.502;10.722;2022-07-09T08:48:52;20.10;1.00
14252;DHT22;7210;51.502;10.722;2022-07-09T08:51:21;20.20;1.00
14252;DHT22;7210;51.502;10.722;2022-07-09T08:53:50;20.30;1.00
14252;DHT22;7210;51.502;10.722;2022-07-09T08:56:20;20.30;1.00
14252;DHT22;7210;51.502;10.722;2022-07-09T08:58:47;20.30;1.00
14252;DHT22;7210;51.502;10.722;2022-07-09T09:01:16;20.30;1.00
14252;DHT22;7210;51.502;10.722;2022-07-09T09:03:44;20.30;1.00
14252;DHT22;7210;51.502;10.722;2022-07-09T09:06:13;20.40;1.00
14252;DHT22;7210;51.502;10.722;2022-07-09T09:08:45;20.40;1.00
14252;DHT22;7210;51.502;10.722;2022-07-09T09:11:15;20.50;1.00
14252;DHT22;7210;51.502;10.722;2022-07-09T09:13:47;20.70;1.00
14252;DHT22;7210;51.502;10.722;2022-07-09T09:16:17;20.50;1.00
14252;DHT22;7210;51.502;10.722;2022-07-09T09:18:51;20.40;1.00
14252;DHT22;7210;51.502;10.722;2022-07-09T09:21:21;20.50;1.00
14252;DHT22;7210;51.502;10.722;2022-07-09T09:23:51;20.50;1.00
14252;DHT22;7210;51.502;10.722;2022-07-09T09:26:20;20.60;1.00
14252;DHT22;7210;51.502;10.722;2022-07-09T09:28:50;20.80;1.00
14252;DHT22;7210;51.502;10.722;2022-07-09T09:31:20;21.00;1.00
14252;DHT22;7210;51.502;10.722;2022-07-09T09:33:49;21.40;1.00
14252;DHT22;7210;51.502;10.722;2022-07-09T09:36:32;21.50;1.00
14252;DHT22;7210;51.502;10.722;2022-07-09T09:39:11;21.80;1.00
14252;DHT22;7210;51.502;10.722;2022-07-09T09:41:41;21.90;1.00
14252;DHT22;7210;51.502;10.722;2022-07-09T09:44:12;21.80;1.00
14252;DHT22;7210;51.502;10.722;2022-07-09T09:46:41;21.50;1.00
14252;DHT22;7210;51.502;10.722;2022-07-09T09:49:11;21.50;1.00
14252;DHT22;7210;51.502;10.722;2022-07-09T09:51:46;21.50;1.00
14252;DHT22;7210;51.502;10.722;2022-07-09T09:54:17;21.40;1.00
14252;DHT22;7210;51.502;10.722;2022-07-09T09:56:46;21.60;1.00
14252;DHT22;7210;51.502;10.722;2022-07-09T09:59:15;21.70;1.00
14252;DHT22;7210;51.502;10.722;2022-07-09T10:01:44;21.80;1.00
14252;DHT22;7210;51.502;10.722;2022-07-09T10:04:13;21.70;1.00
14252;DHT22;7210;51.502;10.722;2022-07-09T10:06:42;21.60;1.00
14252;DHT22;7210;51.502;10.722;2022-07-09T10:09:16;21.70;1.00
14252;DHT22;7210;51.502;10.722;2022-07-09T10:11:46;22.00;1.00
14252;DHT22;7210;51.502;10.722;2022-07-09T10:14:17;22.20;1.00
14252;DHT22;7210;51.502;10.722;2022-07-09T10:16:56;22.10;1.00
14252;DHT22;7210;51.502;10.722;2022-07-09T10:19:35;21.90;1.00
14252;DHT22;7210;51.502;10.722;2022-07-09T10:22:03;21.80;1.00
14252;DHT22;7210;51.502;10.722;2022-07-09T10:24:33;21.60;1.00
14252;DHT22;7210;51.502;10.722;2022-07-09T10:27:05;21.40;1.00
14252;DHT22;7210;51.502;10.722;2022-07-09T10:29:34;21.50;1.00
14252;DHT22;7210;51.502;10.722;2022-07-09T10:32:04;21.40;1.00
14252;DHT22;7210;51.502;10.722;2022-07-09T10:34:43;21.40;1.00
14252;DHT22;7210;51.502;10.722;2022-07-09T10:37:30;21.40;1.00
14252;DHT22;7210;51.502;10.722;2022-07-09T10:40:11;21.10;1.00
14252;DHT22;7210;51.502;10.722;2022-07-09T10:42:39;21.00;1.00
14252;DHT22;7210;51.502;10.722;2022-07-09T10:45:37;21.00;1.00
14252;DHT22;7210;51.502;10.722;2022-07-09T10:48:07;21.00;1.00
14252;DHT22;7210;51.502;10.722;2022-07-09T10:50:38;21.00;1.00
14252;DHT22;7210;51.502;10.722;2022-07-09T10:53:06;21.10;1.00
14252;DHT22;7210;51.502;10.722;2022-07-09T10:55:35;21.30;1.00
14252;DHT22;7210;51.502;10.722;2022-07-09T10:58:02;21.30;1.00
14252;DHT22;7210;51.502;10.722;2022-07-09T11:00:33;21.20;1.00
14252;DHT22;7210;51.502;10.722;2022-07-09T11:03:03;21.20;1.00
14252;DHT22;7210;51.502;10.722;2022-07-09T11:05:32;21.30;1.00
14252;DHT22;7210;51.502;10.722;2022-07-09T11:08:03;21.30;1.00
14252;DHT22;7210;51.502;10.722;2022-07-09T11:10:34;21.30;1.00
14252;DHT22;7210;51.502;10.722;2022-07-09T11:13:05;21.30;1.00
14252;DHT22;7210;51.502;10.722;2022-07-09T11:15:35;21.40;1.00
14252;DHT22;7210;51.502;10.722;2022-07-09T11:18:04;21.50;1.00
14252;DHT22;7210;51.502;10.722;2022-07-09T11:20:37;21.60;1.00
14252;DHT22;7210;51.502;10.722;2022-07-09T11:23:08;21.40;1.00
14252;DHT22;7210;51.502;10.722;2022-07-09T11:25:37;21.40;1.00
14252;DHT22;7210;51.502;10.722;2022-07-09T11:28:05;21.40;1.00
14252;DHT22;7210;51.502;10.722;2022-07-09T11:30:33;21.40;1.00
14252;DHT22;7210;51.502;10.722;2022-07-09T11:33:02;21.50;1.00
14252;DHT22;7210;51.502;10.722;2022-07-09T11:35:31;21.80;1.00
14252;DHT22;7210;51.502;10.722;2022-07-09T11:38:01;21.90;1.00
14252;DHT22;7210;51.502;10.722;2022-07-09T11:40:30;22.00;1.00
14252;DHT22;7210;51.502;10.722;2022-07-09T11:42:59;22.10;1.00
14252;DHT22;7210;51.502;10.722;2022-07-09T11:45:27;22.30;1.00
14252;DHT22;7210;51.502;10.722;2022-07-09T11:48:03;22.60;1.00
14252;DHT22;7210;51.502;10.722;2022-07-09T11:50:32;22.60;1.00
14252;DHT22;7210;51.502;10.722;2022-07-09T11:53:00;22.80;1.00
14252;DHT22;7210;51.502;10.722;2022-07-09T11:55:31;22.90;1.00
14252;DHT22;7210;51.502;10.722;2022-07-09T11:58:06;23.00;1.00
14252;DHT22;7210;51.502;10.722;2022-07-09T12:00:35;22.80;1.00
14252;DHT22;7210;51.502;10.722;2022-07-09T12:03:07;22.60;1.00
14252;DHT22;7210;51.502;10.722;2022-07-09T12:05:35;22.70;1.00
14252;DHT22;7210;51.502;10.722;2022-07-09T12:08:05;22.70;1.00
14252;DHT22;7210;51.502;10.722;2022-07-09T12:10:35;22.50;1.00
14252;DHT22;7210;51.502;10.722;2022-07-09T12:13:06;22.40;1.00
14252;DHT22;7210;51.502;10.722;2022-07-09T12:15:35;22.20;1.00
14252;DHT22;7210;51.502;10.722;2022-07-09T12:18:03;22.00;1.00
14252;DHT22;7210;51.502;10.722;2022-07-09T12:20:31;21.80;1.00
14252;DHT22;7210;51.502;10.722;2022-07-09T12:22:59;21.40;1.00
14252;DHT22;7210;51.502;10.722;2022-07-09T12:25:26;21.20;1.00
14252;DHT22;7210;51.502;10.722;2022-07-09T12:27:53;20.50;1.00
14252;DHT22;7210;51.502;10.722;2022-07-09T12:30:23;19.70;1.00
14252;DHT22;7210;51.502;10.722;2022-07-09T12:32:50;19.20;1.00
14252;DHT22;7210;51.502;10.722;2022-07-09T12:35:19;18.80;1.00
14252;DHT22;7210;51.502;10.722;2022-07-09T12:37:46;18.40;1.00
14252;DHT22;7210;51.502;10.722;2022-07-09T12:40:13;18.20;1.00
14252;DHT22;7210;51.502;10.722;2022-07-09T12:42:41;18.00;1.00
14252;DHT22;7210;51.502;10.722;2022-07-09T12:45:09;17.90;1.00
14252;DHT22;7210;51.502;10.722;2022-07-09T12:47:40;17.80;1.00
14252;DHT22;7210;51.502;10.722;2022-07-09T12:50:07;17.90;1.00
14252;DHT22;7210;51.502;10.722;2022-07-09T12:52:35;18.00;1.00
14252;DHT22;7210;51.502;10.722;2022-07-09T12:55:04;18.00;1.00
14252;DHT22;7210;51.502;10.722;2022-07-09T12:57:33;18.10;1.00
14252;DHT22;7210;51.502;10.722;2022-07-09T13:00:00;18.40;1.00
14252;DHT22;7210;51.502;10.722;2022-07-09T13:02:28;18.60;1.00
14252;DHT22;7210;51.502;10.722;2022-07-09T13:04:58;18.90;1.00
14252;DHT22;7210;51.502;10.722;2022-07-09T13:07:25;19.00;1.00
14252;DHT22;7210;51.502;10.722;2022-07-09T13:09:56;19.20;1.00
14252;DHT22;7210;51.502;10.722;2022-07-09T13:12:23;19.20;1.00
14252;DHT22;7210;51.502;10.722;2022-07-09T13:14:51;19.50;1.00
14252;DHT22;7210;51.502;10.722;2022-07-09T13:17:18;19.90;1.00
14252;DHT22;7210;51.502;10.722;2022-07-09T13:19:45;20.50;1.00
14252;DHT22;7210;51.502;10.722;2022-07-09T13:22:15;21.10;1.00
14252;DHT22;7210;51.502;10.722;2022-07-09T13:24:45;21.50;1.00
14252;DHT22;7210;51.502;10.722;2022-07-09T13:27:12;21.70;1.00
14252;DHT22;7210;51.502;10.722;2022-07-09T13:29:40;21.80;1.00
14252;DHT22;7210;51.502;10.722;2022-07-09T13:32:08;21.70;1.00
14252;DHT22;7210;51.502;10.722;2022-07-09T13:34:35;21.50;1.00
14252;DHT22;7210;51.502;10.722;2022-07-09T13:37:02;21.30;1.00
14252;DHT22;7210;51.502;10.722;2022-07-09T13:39:31;21.30;1.00
14252;DHT22;7210;51.502;10.722;2022-07-09T13:41:58;21.40;1.00
14252;DHT22;7210;51.502;10.722;2022-07-09T13:44:25;21.50;1.00
14252;DHT22;7210;51.502;10.722;2022-07-09T13:46:53;21.50;1.00
14252;DHT22;7210;51.502;10.722;2022-07-09T13:49:20;21.60;1.00
14252;DHT22;7210;51.502;10.722;2022-07-09T13:51:47;21.60;1.00
14252;DHT22;7210;51.502;10.722;2022-07-09T13:54:15;21.70;1.00
14252;DHT22;7210;51.502;10.722;2022-07-09T13:56:43;21.70;1.00
14252;DHT22;7210;51.502;10.722;2022-07-09T13:59:11;21.90;1.00
14252;DHT22;7210;51.502;10.722;2022-07-09T14:01:38;22.10;1.00
14252;DHT22;7210;51.502;10.722;2022-07-09T14:04:05;22.40;1.00
14252;DHT22;7210;51.502;10.722;2022-07-09T14:06:33;22.60;1.00
14252;DHT22;7210;51.502;10.722;2022-07-09T14:09:00;22.80;1.00
14252;DHT22;7210;51.502;10.722;2022-07-09T14:11:27;22.90;1.00
14252;DHT22;7210;51.502;10.722;2022-07-09T14:13:56;22.90;1.00
14252;DHT22;7210;51.502;10.722;2022-07-09T14:16:23;22.90;1.00
14252;DHT22;7210;51.502;10.722;2022-07-09T14:18:51;23.20;1.00
14252;DHT22;7210;51.502;10.722;2022-07-09T14:21:20;23.40;1.00
14252;DHT22;7210;51.502;10.722;2022-07-09T14:23:47;23.80;1.00
14252;DHT22;7210;51.502;10.722;2022-07-09T14:26:14;23.70;1.00
14252;DHT22;7210;51.502;10.722;2022-07-09T14:28:42;23.70;1.00
14252;DHT22;7210;51.502;10.722;2022-07-09T14:31:10;23.70;1.00
14252;DHT22;7210;51.502;10.722;2022-07-09T14:33:38;24.00;1.00
14252;DHT22;7210;51.502;10.722;2022-07-09T14:36:05;24.30;1.00
14252;DHT22;7210;51.502;10.722;2022-07-09T14:38:33;24.30;1.00
14252;DHT22;7210;51.502;10.722;2022-07-09T14:41:01;24.50;1.00
14252;DHT22;7210;51.502;10.722;2022-07-09T14:43:29;24.20;1.00
14252;DHT22;7210;51.502;10.722;2022-07-09T14:45:56;23.90;1.00
14252;DHT22;7210;51.502;10.722;2022-07-09T14:48:24;23.80;1.00
14252;DHT22;7210;51.502;10.722;2022-07-09T14:50:52;24.00;1.00
14252;DHT22;7210;51.502;10.722;2022-07-09T14:53:19;24.20;1.00
14252;DHT22;7210;51.502;10.722;2022-07-09T14:55:46;24.30;1.00
14252;DHT22;7210;51.502;10.722;2022-07-09T14:58:13;24.30;1.00
14252;DHT22;7210;51.502;10.722;2022-07-09T15:00:41;24.00;1.00
14252;DHT22;7210;51.502;10.722;2022-07-09T15:03:08;24.00;1.00
14252;DHT22;7210;51.502;10.722;2022-07-09T15:05:37;24.00;1.00
14252;DHT22;7210;51.502;10.722;2022-07-09T15:08:04;24.10;1.00
14252;DHT22;7210;51.502;10.722;2022-07-09T15:10:32;24.30;1.00
14252;DHT22;7210;51.502;10.722;2022-07-09T15:12:59;24.20;1.00
14252;DHT22;7210;51.502;10.722;2022-07-09T15:15:26;24.30;1.00
14252;DHT22;7210;51.502;10.722;2022-07-09T15:17:53;24.50;1.00
14252;DHT22;7210;51.502;10.722;2022-07-09T15:20:21;24.30;1.00
14252;DHT22;7210;51.502;10.722;2022-07-09T15:22:49;24.20;1.00
14252;DHT22;7210;51.502;10.722;2022-07-09T15:25:17;24.20;6.00
14252;DHT22;7210;51.502;10.722;2022-07-09T15:27:44;24.20;1.00
14252;DHT22;7210;51.502;10.722;2022-07-09T15:30:11;24.40;1.00
14252;DHT22;7210;51.502;10.722;2022-07-09T15:32:40;24.60;1.00
14252;DHT22;7210;51.502;10.722;2022-07-09T15:35:08;24.50;1.00
14252;DHT22;7210;51.502;10.722;2022-07-09T15:37:37;24.60;1.00
14252;DHT22;7210;51.502;10.722;2022-07-09T15:40:06;24.90;1.00
14252;DHT22;7210;51.502;10.722;2022-07-09T15:42:34;25.10;3.30
14252;DHT22;7210;51.502;10.722;2022-07-09T15:45:02;25.40;5.30
14252;DHT22;7210;51.502;10.722;2022-07-09T15:47:30;25.30;4.50
14252;DHT22;7210;51.502;10.722;2022-07-09T15:49:57;24.90;1.50
14252;DHT22;7210;51.502;10.722;2022-07-09T15:52:24;24.50;1.00